Terminal Aerodrome Forecast
Issued by NWS

Current Version | Previous Version | Text Only | Print | Product List | Glossary On
Versions: 1 2 3 4 5 6 7 8 9 10 11 12 13 14 15 16 17
000
FTUS44 KLIX 020522
TAFMCB
TAF
KMCB 020522Z 0206/0306 19005KT 1/2SM FG SKC
      TEMPO 0206/0208 3/4SM BR
     FM020800 00000KT 2SM BR SCT003
      TEMPO 0209/0212 1/2SM FG VV003
     FM021300 23005KT P6SM SCT025
     FM021700 22010KT P6SM SCT035=

USA.gov is the U.S. government's official web portal to all federal, state and local government web resources and services.